
Distance (Route):
Temperature : -55.2°C
Humidity : 1.5%
Pressure : 0hPa| Receiver | Frames | First received | Last received |
|---|---|---|---|
| KE7DJD | 167 | 2026-09-03 23:05:02 | 2026-09-04 00:05:13 |
| Receiver | Date | Latitude | Longitude | Direction | Speed | Altitude | Climb | Temperature | Humidity | Pressure | Voltage | Killtimer | Uptime | BKT | XDATA |
|---|---|---|---|---|---|---|---|---|---|---|---|---|---|---|---|
| KE7DJD | 2026-09-04 00:05:13 | 44.18179 | -115.48076 | 34° | 40km/h | 18570m | 3.6m/s | -55.2°C | 1.5% | 0hPa | 0V | 00:00:00 | 00:00:00 | 00:00:00 | |
| KE7DJD | 2026-09-04 00:04:51 | 44.18011 | -115.48158 | 20° | 27km/h | 18472m | 4.4m/s | -55.7°C | 1.6% | 0hPa | 0V | 00:00:00 | 00:00:00 | 00:00:00 | |
| KE7DJD | 2026-09-04 00:04:31 | 44.17839 | -115.48219 | 24° | 37km/h | 18376m | 4.5m/s | -55.3°C | 1.6% | 0hPa | 0V | 00:00:00 | 00:00:00 | 00:00:00 | |
| KE7DJD | 2026-09-04 00:04:11 | 44.17635 | -115.48236 | 349° | 40km/h | 18263m | 5.7m/s | -54.6°C | 1.5% | 0hPa | 0V | 00:00:00 | 00:00:00 | 00:00:00 | |
| KE7DJD | 2026-09-04 00:03:50 | 44.17425 | -115.48227 | 11° | 42km/h | 18152m | 4.0m/s | -53.8°C | 1.5% | 0hPa | 0V | 00:00:00 | 00:00:00 | 00:00:00 | |
| KE7DJD | 2026-09-04 00:03:29 | 44.17206 | -115.48218 | 357° | 44km/h | 18044m | 4.9m/s | -53.5°C | 1.4% | 0hPa | 0V | 00:00:00 | 00:00:00 | 00:00:00 | |
| KE7DJD | 2026-09-04 00:03:08 | 44.17008 | -115.48240 | 14° | 33km/h | 17930m | 5.6m/s | -53.3°C | 1.4% | 0hPa | 0V | 00:00:00 | 00:00:00 | 00:00:00 | |
| KE7DJD | 2026-09-04 00:02:26 | 44.16659 | -115.48528 | 49° | 16km/h | 17600m | 3.6m/s | -54.2°C | 1.5% | 0hPa | 0V | 00:00:00 | 00:00:00 | 00:00:00 | |
| KE7DJD | 2026-09-04 00:01:28 | 44.16453 | -115.48897 | 47° | 29km/h | 17385m | 6.0m/s | -53.2°C | 1.4% | 0hPa | 0V | 00:00:00 | 00:00:00 | 00:00:00 | |
| KE7DJD | 2026-09-04 00:00:45 | 44.16179 | -115.49220 | 27° | 37km/h | 17177m | 4.4m/s | -52.4°C | 1.3% | 0hPa | 0V | 00:00:00 | 00:00:00 | 00:00:00 | |
| KE7DJD | 2026-09-04 00:00:26 | 44.15992 | -115.49335 | 15° | 44km/h | 17074m | 4.9m/s | -52.8°C | 1.4% | 0hPa | 0V | 00:00:00 | 00:00:00 | 00:00:00 | |
| KE7DJD | 2026-09-03 23:59:42 | 44.15511 | -115.49686 | 44° | 60km/h | 16861m | 5.3m/s | -54.0°C | 1.5% | 0hPa | 0V | 00:00:00 | 00:00:00 | 00:00:00 | |
| KE7DJD | 2026-09-03 23:59:22 | 44.15319 | -115.49949 | 51° | 44km/h | 16762m | 6.0m/s | -53.5°C | 1.5% | 0hPa | 0V | 00:00:00 | 00:00:00 | 00:00:00 | |
| KE7DJD | 2026-09-03 23:59:02 | 44.15166 | -115.50209 | 51° | 47km/h | 16667m | 4.3m/s | -53.3°C | 1.5% | 0hPa | 0V | 00:00:00 | 00:00:00 | 00:00:00 | |
| KE7DJD | 2026-09-03 23:58:42 | 44.15006 | -115.50490 | 41° | 60km/h | 16573m | 4.8m/s | -54.0°C | 1.6% | 0hPa | 0V | 00:00:00 | 00:00:00 | 00:00:00 | |
| KE7DJD | 2026-09-03 23:58:21 | 44.14803 | -115.50842 | 48° | 64km/h | 16476m | 5.7m/s | -53.9°C | 1.5% | 0hPa | 0V | 00:00:00 | 00:00:00 | 00:00:00 | |
| KE7DJD | 2026-09-03 23:58:01 | 44.14608 | -115.51214 | 61° | 62km/h | 16384m | 6.1m/s | -54.2°C | 1.6% | 0hPa | 0V | 00:00:00 | 00:00:00 | 00:00:00 | |
| KE7DJD | 2026-09-03 23:57:19 | 44.14221 | -115.52021 | 60° | 57km/h | 16187m | 4.5m/s | -54.9°C | 1.8% | 0hPa | 0V | 00:00:00 | 00:00:00 | 00:00:00 | |
| KE7DJD | 2026-09-03 23:56:58 | 44.14054 | -115.52387 | 60° | 57km/h | 16093m | 5.4m/s | -55.2°C | 1.8% | 0hPa | 0V | 00:00:00 | 00:00:00 | 00:00:00 | |
| KE7DJD | 2026-09-03 23:56:38 | 44.13910 | -115.52768 | 58° | 64km/h | 16000m | 4.1m/s | -55.3°C | 1.9% | 0hPa | 0V | 00:00:00 | 00:00:00 | 00:00:00 | |
| KE7DJD | 2026-09-03 23:56:18 | 44.13733 | -115.53152 | 50° | 60km/h | 15907m | 3.8m/s | -55.7°C | 2.1% | 0hPa | 0V | 00:00:00 | 00:00:00 | 00:00:00 | |
| KE7DJD | 2026-09-03 23:55:58 | 44.13530 | -115.53525 | 54° | 71km/h | 15815m | 3.5m/s | -56.0°C | 2.1% | 0hPa | 0V | 00:00:00 | 00:00:00 | 00:00:00 | |
| KE7DJD | 2026-09-03 23:55:38 | 44.13336 | -115.53957 | 58° | 71km/h | 15721m | 4.6m/s | -56.5°C | 2.2% | 0hPa | 0V | 00:00:00 | 00:00:00 | 00:00:00 | |
| KE7DJD | 2026-09-03 23:55:18 | 44.13129 | -115.54473 | 67° | 89km/h | 15631m | 3.1m/s | -56.9°C | 2.4% | 0hPa | 0V | 00:00:00 | 00:00:00 | 00:00:00 | |
| KE7DJD | 2026-09-03 23:54:58 | 44.12872 | -115.55046 | 60° | 97km/h | 15536m | 5.8m/s | -56.7°C | 2.5% | 0hPa | 0V | 00:00:00 | 00:00:00 | 00:00:00 | |
| KE7DJD | 2026-09-03 23:54:37 | 44.12551 | -115.55653 | 53° | 100km/h | 15435m | 5.6m/s | -57.5°C | 2.8% | 0hPa | 0V | 00:00:00 | 00:00:00 | 00:00:00 | |
| KE7DJD | 2026-09-03 23:54:16 | 44.12169 | -115.56206 | 48° | 97km/h | 15333m | 4.0m/s | -57.8°C | 2.8% | 0hPa | 0V | 00:00:00 | 00:00:00 | 00:00:00 | |
| KE7DJD | 2026-09-03 23:53:56 | 44.11764 | -115.56680 | 38° | 100km/h | 15240m | 4.7m/s | -58.1°C | 2.9% | 0hPa | 0V | 00:00:00 | 00:00:00 | 00:00:00 | |
| KE7DJD | 2026-09-03 23:53:35 | 44.11354 | -115.57103 | 33° | 97km/h | 15137m | 4.7m/s | -57.8°C | 2.9% | 0hPa | 0V | 00:00:00 | 00:00:00 | 00:00:00 | |
| KE7DJD | 2026-09-03 23:52:53 | 44.10555 | -115.57750 | 25° | 82km/h | 14913m | 6.0m/s | -57.1°C | 2.9% | 0hPa | 0V | 00:00:00 | 00:00:00 | 00:00:00 | |
| KE7DJD | 2026-09-03 23:52:32 | 44.10216 | -115.57965 | 33° | 62km/h | 14797m | 5.1m/s | -56.0°C | 2.7% | 0hPa | 0V | 00:00:00 | 00:00:00 | 00:00:00 | |
| KE7DJD | 2026-09-03 23:52:12 | 44.09917 | -115.58165 | 22° | 68km/h | 14690m | 5.3m/s | -55.0°C | 2.5% | 0hPa | 0V | 00:00:00 | 00:00:00 | 00:00:00 | |
| KE7DJD | 2026-09-03 23:51:51 | 44.09624 | -115.58358 | 23° | 60km/h | 14587m | 4.9m/s | -54.1°C | 2.3% | 0hPa | 0V | 00:00:00 | 00:00:00 | 00:00:00 | |
| KE7DJD | 2026-09-03 23:51:31 | 44.09367 | -115.58526 | 24° | 62km/h | 14487m | 4.3m/s | -53.2°C | 2.2% | 0hPa | 0V | 00:00:00 | 00:00:00 | 00:00:00 | |
| KE7DJD | 2026-09-03 23:51:10 | 44.09102 | -115.58732 | 31° | 66km/h | 14386m | 5.3m/s | -52.7°C | 2.1% | 0hPa | 0V | 00:00:00 | 00:00:00 | 00:00:00 | |
| KE7DJD | 2026-09-03 23:50:50 | 44.08877 | -115.58964 | 45° | 55km/h | 14291m | 4.0m/s | -52.4°C | 2.1% | 0hPa | 0V | 00:00:00 | 00:00:00 | 00:00:00 | |
| KE7DJD | 2026-09-03 23:50:30 | 44.08682 | -115.59251 | 47° | 57km/h | 14199m | 5.5m/s | -52.2°C | 2.1% | 0hPa | 0V | 00:00:00 | 00:00:00 | 00:00:00 | |
| KE7DJD | 2026-09-03 23:50:10 | 44.08522 | -115.59570 | 68° | 57km/h | 14109m | 3.8m/s | -51.6°C | 2.1% | 0hPa | 0V | 00:00:00 | 00:00:00 | 00:00:00 | |
| KE7DJD | 2026-09-03 23:49:49 | 44.08375 | -115.59936 | 67° | 64km/h | 14015m | 3.3m/s | -51.3°C | 2.1% | 0hPa | 0V | 00:00:00 | 00:00:00 | 00:00:00 | |
| KE7DJD | 2026-09-03 23:49:28 | 44.08245 | -115.60360 | 72° | 66km/h | 13922m | 4.2m/s | -51.1°C | 2.0% | 0hPa | 0V | 00:00:00 | 00:00:00 | 00:00:00 | |
| KE7DJD | 2026-09-03 23:49:08 | 44.08123 | -115.60806 | 71° | 71km/h | 13835m | 4.8m/s | -50.8°C | 2.0% | 0hPa | 0V | 00:00:00 | 00:00:00 | 00:00:00 | |
| KE7DJD | 2026-09-03 23:48:48 | 44.07994 | -115.61287 | 65° | 68km/h | 13749m | 3.4m/s | -50.9°C | 2.0% | 0hPa | 0V | 00:00:00 | 00:00:00 | 00:00:00 | |
| KE7DJD | 2026-09-03 23:48:27 | 44.07843 | -115.61876 | 70° | 102km/h | 13639m | 7.8m/s | -50.4°C | 2.1% | 0hPa | 0V | 00:00:00 | 00:00:00 | 00:00:00 | |
| KE7DJD | 2026-09-03 23:48:06 | 44.07673 | -115.62552 | 66° | 119km/h | 13532m | 4.8m/s | -50.1°C | 2.1% | 0hPa | 0V | 00:00:00 | 00:00:00 | 00:00:00 | |
| KE7DJD | 2026-09-03 23:47:46 | 44.07474 | -115.63286 | 71° | 119km/h | 13436m | 3.0m/s | -50.1°C | 2.2% | 0hPa | 0V | 00:00:00 | 00:00:00 | 00:00:00 | |
| KE7DJD | 2026-09-03 23:47:25 | 44.07217 | -115.64092 | 69° | 117km/h | 13351m | 2.7m/s | -49.7°C | 2.2% | 0hPa | 0V | 00:00:00 | 00:00:00 | 00:00:00 | |
| KE7DJD | 2026-09-03 23:47:06 | 44.06914 | -115.64864 | 61° | 126km/h | 13272m | 4.4m/s | -49.8°C | 2.3% | 0hPa | 0V | 00:00:00 | 00:00:00 | 00:00:00 | |
| KE7DJD | 2026-09-03 23:46:44 | 44.06590 | -115.65645 | 67° | 122km/h | 13188m | 3.0m/s | -50.5°C | 2.7% | 0hPa | 0V | 00:00:00 | 00:00:00 | 00:00:00 | |
| KE7DJD | 2026-09-03 23:46:24 | 44.06260 | -115.66419 | 56° | 128km/h | 13089m | 4.6m/s | -50.5°C | 2.8% | 0hPa | 0V | 00:00:00 | 00:00:00 | 00:00:00 | |
| KE7DJD | 2026-09-03 23:46:03 | 44.05867 | -115.67090 | 46° | 124km/h | 13005m | 4.9m/s | -50.3°C | 2.8% | 0hPa | 0V | 00:00:00 | 00:00:00 | 00:00:00 | |
| KE7DJD | 2026-09-03 23:45:43 | 44.05435 | -115.67751 | 47° | 124km/h | 12918m | 3.9m/s | -50.6°C | 3.1% | 0hPa | 0V | 00:00:00 | 00:00:00 | 00:00:00 | |
| KE7DJD | 2026-09-03 23:45:01 | 44.04423 | -115.69009 | 35° | 120km/h | 12730m | 3.8m/s | -52.4°C | 4.6% | 0hPa | 0V | 00:00:00 | 00:00:00 | 00:00:00 | |
| KE7DJD | 2026-09-03 23:44:41 | 44.03919 | -115.69449 | 33° | 113km/h | 12647m | 2.9m/s | -51.6°C | 4.4% | 0hPa | 0V | 00:00:00 | 00:00:00 | 00:00:00 | |
| KE7DJD | 2026-09-03 23:44:20 | 44.03403 | -115.69901 | 34° | 120km/h | 12563m | 5.1m/s | -51.3°C | 4.3% | 0hPa | 0V | 00:00:00 | 00:00:00 | 00:00:00 | |
| KE7DJD | 2026-09-03 23:44:01 | 44.02936 | -115.70369 | 35° | 119km/h | 12478m | 5.3m/s | -51.3°C | 4.4% | 0hPa | 0V | 00:00:00 | 00:00:00 | 00:00:00 | |
| KE7DJD | 2026-09-03 23:43:40 | 44.02464 | -115.70834 | 36° | 108km/h | 12396m | 3.5m/s | -51.3°C | 4.7% | 0hPa | 0V | 00:00:00 | 00:00:00 | 00:00:00 | |
| KE7DJD | 2026-09-03 23:43:20 | 44.01979 | -115.71276 | 36° | 108km/h | 12302m | 5.8m/s | -50.5°C | 4.6% | 0hPa | 0V | 00:00:00 | 00:00:00 | 00:00:00 | |
| KE7DJD | 2026-09-03 23:43:00 | 44.01539 | -115.71670 | 37° | 115km/h | 12208m | 8.6m/s | -49.8°C | 5.7% | 0hPa | 0V | 00:00:00 | 00:00:00 | 00:00:00 | |
| KE7DJD | 2026-09-03 23:42:39 | 44.01131 | -115.72143 | 38° | 120km/h | 12110m | 8.1m/s | -50.0°C | 10.5% | 0hPa | 0V | 00:00:00 | 00:00:00 | 00:00:00 | |
| KE7DJD | 2026-09-03 23:42:19 | 44.00738 | -115.72749 | 50° | 137km/h | 11995m | 5.5m/s | -52.7°C | 23.4% | 0hPa | 0V | 00:00:00 | 00:00:00 | 00:00:00 | |
| KE7DJD | 2026-09-03 23:41:58 | 44.00262 | -115.73372 | 41° | 130km/h | 11898m | 4.1m/s | -53.0°C | 26.9% | 0hPa | 0V | 00:00:00 | 00:00:00 | 00:00:00 | |
| KE7DJD | 2026-09-03 23:41:38 | 43.99798 | -115.73969 | 49° | 128km/h | 11788m | 5.5m/s | -52.5°C | 31.3% | 0hPa | 0V | 00:00:00 | 00:00:00 | 00:00:00 | |
| KE7DJD | 2026-09-03 23:41:16 | 43.99334 | -115.74712 | 52° | 139km/h | 11680m | 3.6m/s | -52.8°C | 38.9% | 0hPa | 0V | 00:00:00 | 00:00:00 | 00:00:00 | |
| KE7DJD | 2026-09-03 23:40:56 | 43.98861 | -115.75488 | 49° | 146km/h | 11592m | 3.4m/s | -53.0°C | 43.0% | 0hPa | 0V | 00:00:00 | 00:00:00 | 00:00:00 | |
| KE7DJD | 2026-09-03 23:40:36 | 43.98349 | -115.76243 | 46° | 146km/h | 11500m | 4.5m/s | -52.9°C | 41.8% | 0hPa | 0V | 00:00:00 | 00:00:00 | 00:00:00 | |
| KE7DJD | 2026-09-03 23:40:16 | 43.97814 | -115.76954 | 40° | 141km/h | 11407m | 3.3m/s | -52.1°C | 39.1% | 0hPa | 0V | 00:00:00 | 00:00:00 | 00:00:00 | |
| KE7DJD | 2026-09-03 23:39:56 | 43.97253 | -115.77690 | 43° | 157km/h | 11302m | 3.4m/s | -51.0°C | 35.1% | 0hPa | 0V | 00:00:00 | 00:00:00 | 00:00:00 | |
| KE7DJD | 2026-09-03 23:39:36 | 43.96723 | -115.78392 | 47° | 139km/h | 11208m | 3.3m/s | -50.2°C | 32.1% | 0hPa | 0V | 00:00:00 | 00:00:00 | 00:00:00 | |
| KE7DJD | 2026-09-03 23:39:15 | 43.96182 | -115.79079 | 46° | 139km/h | 11115m | 5.3m/s | -49.9°C | 33.4% | 0hPa | 0V | 00:00:00 | 00:00:00 | 00:00:00 | |
| KE7DJD | 2026-09-03 23:38:55 | 43.95645 | -115.79780 | 45° | 148km/h | 11020m | 4.8m/s | -50.0°C | 34.8% | 0hPa | 0V | 00:00:00 | 00:00:00 | 00:00:00 | |
| KE7DJD | 2026-09-03 23:38:34 | 43.95073 | -115.80460 | 42° | 142km/h | 10926m | 3.8m/s | -49.2°C | 33.8% | 0hPa | 0V | 00:00:00 | 00:00:00 | 00:00:00 | |
| KE7DJD | 2026-09-03 23:38:13 | 43.94504 | -115.81107 | 37° | 141km/h | 10839m | 4.6m/s | -48.4°C | 33.3% | 0hPa | 0V | 00:00:00 | 00:00:00 | 00:00:00 | |
| KE7DJD | 2026-09-03 23:37:53 | 43.93979 | -115.81740 | 43° | 133km/h | 10755m | 4.9m/s | -48.1°C | 38.1% | 0hPa | 0V | 00:00:00 | 00:00:00 | 00:00:00 | |
| KE7DJD | 2026-09-03 23:37:33 | 43.93471 | -115.82423 | 49° | 142km/h | 10668m | 5.4m/s | -47.4°C | 38.5% | 0hPa | 0V | 00:00:00 | 00:00:00 | 00:00:00 | |
| KE7DJD | 2026-09-03 23:37:13 | 43.92977 | -115.83138 | 46° | 141km/h | 10583m | 4.8m/s | -46.5°C | 36.5% | 0hPa | 0V | 00:00:00 | 00:00:00 | 00:00:00 | |
| KE7DJD | 2026-09-03 23:36:54 | 43.92477 | -115.83853 | 44° | 141km/h | 10501m | 3.5m/s | -45.8°C | 32.8% | 0hPa | 0V | 00:00:00 | 00:00:00 | 00:00:00 | |
| KE7DJD | 2026-09-03 23:36:33 | 43.91963 | -115.84610 | 50° | 146km/h | 10416m | 4.2m/s | -45.2°C | 29.4% | 0hPa | 0V | 00:00:00 | 00:00:00 | 00:00:00 | |
| KE7DJD | 2026-09-03 23:36:12 | 43.91462 | -115.85355 | 50° | 135km/h | 10331m | 4.9m/s | -44.5°C | 27.0% | 0hPa | 0V | 00:00:00 | 00:00:00 | 00:00:00 | |
| KE7DJD | 2026-09-03 23:35:50 | 43.90962 | -115.86077 | 47° | 131km/h | 10246m | 4.2m/s | -43.8°C | 27.9% | 0hPa | 0V | 00:00:00 | 00:00:00 | 00:00:00 | |
| KE7DJD | 2026-09-03 23:35:30 | 43.90479 | -115.86758 | 46° | 137km/h | 10165m | 4.4m/s | -43.4°C | 39.8% | 0hPa | 0V | 00:00:00 | 00:00:00 | 00:00:00 | |
| KE7DJD | 2026-09-03 23:35:11 | 43.89985 | -115.87406 | 42° | 139km/h | 10077m | 3.9m/s | -42.6°C | 32.3% | 0hPa | 0V | 00:00:00 | 00:00:00 | 00:00:00 | |
| KE7DJD | 2026-09-03 23:34:51 | 43.89487 | -115.88039 | 42° | 135km/h | 9990m | 3.5m/s | -41.8°C | 29.4% | 0hPa | 0V | 00:00:00 | 00:00:00 | 00:00:00 | |
| KE7DJD | 2026-09-03 23:34:30 | 43.88997 | -115.88667 | 43° | 130km/h | 9903m | 4.3m/s | -41.1°C | 27.8% | 0hPa | 0V | 00:00:00 | 00:00:00 | 00:00:00 | |
| KE7DJD | 2026-09-03 23:34:10 | 43.88479 | -115.89328 | 44° | 126km/h | 9808m | 3.7m/s | -40.3°C | 28.7% | 0hPa | 0V | 00:00:00 | 00:00:00 | 00:00:00 | |
| KE7DJD | 2026-09-03 23:33:49 | 43.87978 | -115.89938 | 42° | 130km/h | 9716m | 5.2m/s | -39.7°C | 31.2% | 0hPa | 0V | 00:00:00 | 00:00:00 | 00:00:00 | |
| KE7DJD | 2026-09-03 23:33:30 | 43.87475 | -115.90529 | 41° | 131km/h | 9627m | 4.1m/s | -38.9°C | 27.8% | 0hPa | 0V | 00:00:00 | 00:00:00 | 00:00:00 | |
| KE7DJD | 2026-09-03 23:33:09 | 43.86971 | -115.91094 | 39° | 135km/h | 9538m | 4.4m/s | -38.1°C | 25.0% | 0hPa | 0V | 00:00:00 | 00:00:00 | 00:00:00 | |
| KE7DJD | 2026-09-03 23:32:49 | 43.86448 | -115.91710 | 41° | 126km/h | 9443m | 4.5m/s | -37.1°C | 22.7% | 0hPa | 0V | 00:00:00 | 00:00:00 | 00:00:00 | |
| KE7DJD | 2026-09-03 23:32:28 | 43.85934 | -115.92317 | 40° | 120km/h | 9349m | 4.8m/s | -36.4°C | 22.8% | 0hPa | 0V | 00:00:00 | 00:00:00 | 00:00:00 | |
| KE7DJD | 2026-09-03 23:32:08 | 43.85447 | -115.92895 | 43° | 124km/h | 9259m | 4.4m/s | -35.6°C | 24.8% | 0hPa | 0V | 00:00:00 | 00:00:00 | 00:00:00 | |
| KE7DJD | 2026-09-03 23:31:47 | 43.84935 | -115.93524 | 44° | 130km/h | 9161m | 4.1m/s | -34.8°C | 25.6% | 0hPa | 0V | 00:00:00 | 00:00:00 | 00:00:00 | |
| KE7DJD | 2026-09-03 23:31:26 | 43.84461 | -115.94150 | 42° | 131km/h | 9071m | 6.1m/s | -34.1°C | 26.0% | 0hPa | 0V | 00:00:00 | 00:00:00 | 00:00:00 | |
| KE7DJD | 2026-09-03 23:31:06 | 43.83953 | -115.94794 | 43° | 130km/h | 8976m | 5.4m/s | -33.2°C | 24.1% | 0hPa | 0V | 00:00:00 | 00:00:00 | 00:00:00 | |
| KE7DJD | 2026-09-03 23:30:45 | 43.83448 | -115.95445 | 47° | 130km/h | 8878m | 4.4m/s | -32.3°C | 21.9% | 0hPa | 0V | 00:00:00 | 00:00:00 | 00:00:00 | |
| KE7DJD | 2026-09-03 23:30:24 | 43.82957 | -115.96061 | 43° | 141km/h | 8788m | 4.4m/s | -31.5°C | 19.5% | 0hPa | 0V | 00:00:00 | 00:00:00 | 00:00:00 | |
| KE7DJD | 2026-09-03 23:30:04 | 43.82466 | -115.96658 | 43° | 135km/h | 8699m | 5.7m/s | -30.8°C | 18.4% | 0hPa | 0V | 00:00:00 | 00:00:00 | 00:00:00 | |
| KE7DJD | 2026-09-03 23:29:45 | 43.81976 | -115.97251 | 44° | 120km/h | 8614m | 4.5m/s | -30.4°C | 20.8% | 0hPa | 0V | 00:00:00 | 00:00:00 | 00:00:00 | |
| KE7DJD | 2026-09-03 23:29:25 | 43.81497 | -115.97851 | 42° | 124km/h | 8527m | 3.6m/s | -29.9°C | 21.0% | 0hPa | 0V | 00:00:00 | 00:00:00 | 00:00:00 | |
| KE7DJD | 2026-09-03 23:29:03 | 43.81002 | -115.98462 | 41° | 119km/h | 8434m | 3.2m/s | -29.0°C | 19.5% | 0hPa | 0V | 00:00:00 | 00:00:00 | 00:00:00 | |
| KE7DJD | 2026-09-03 23:28:43 | 43.80499 | -115.99039 | 42° | 128km/h | 8343m | 4.5m/s | -28.2°C | 18.0% | 0hPa | 0V | 00:00:00 | 00:00:00 | 00:00:00 | |
| KE7DJD | 2026-09-03 23:28:22 | 43.79999 | -115.99620 | 43° | 124km/h | 8253m | 2.7m/s | -27.9°C | 24.2% | 0hPa | 0V | 00:00:00 | 00:00:00 | 00:00:00 | |
| KE7DJD | 2026-09-03 23:28:02 | 43.79527 | -116.00157 | 42° | 124km/h | 8171m | 5.3m/s | -27.2°C | 23.0% | 0hPa | 0V | 00:00:00 | 00:00:00 | 00:00:00 | |
| KE7DJD | 2026-09-03 23:27:42 | 43.79062 | -116.00707 | 44° | 117km/h | 8092m | 3.3m/s | -26.4°C | 21.0% | 0hPa | 0V | 00:00:00 | 00:00:00 | 00:00:00 | |
| KE7DJD | 2026-09-03 23:27:21 | 43.78575 | -116.01279 | 41° | 131km/h | 8006m | 3.5m/s | -25.6°C | 20.6% | 0hPa | 0V | 00:00:00 | 00:00:00 | 00:00:00 | |
| KE7DJD | 2026-09-03 23:27:00 | 43.78103 | -116.01839 | 45° | 120km/h | 7925m | 4.8m/s | -25.0°C | 16.2% | 0hPa | 0V | 00:00:00 | 00:00:00 | 00:00:00 | |
| KE7DJD | 2026-09-03 23:26:39 | 43.77617 | -116.02415 | 39° | 122km/h | 7840m | 3.5m/s | -24.5°C | 5.6% | 0hPa | 0V | 00:00:00 | 00:00:00 | 00:00:00 | |
| KE7DJD | 2026-09-03 23:26:19 | 43.77112 | -116.03013 | 41° | 128km/h | 7752m | 4.4m/s | -24.4°C | 7.3% | 0hPa | 0V | 00:00:00 | 00:00:00 | 00:00:00 | |
| KE7DJD | 2026-09-03 23:25:59 | 43.76661 | -116.03568 | 41° | 119km/h | 7671m | 4.7m/s | -24.7°C | 51.3% | 0hPa | 0V | 00:00:00 | 00:00:00 | 00:00:00 | |
| KE7DJD | 2026-09-03 23:25:38 | 43.76151 | -116.04136 | 36° | 120km/h | 7579m | 6.1m/s | -24.1°C | 63.6% | 0hPa | 0V | 00:00:00 | 00:00:00 | 00:00:00 | |
| KE7DJD | 2026-09-03 23:25:17 | 43.75678 | -116.04656 | 40° | 115km/h | 7489m | 4.7m/s | -23.3°C | 65.4% | 0hPa | 0V | 00:00:00 | 00:00:00 | 00:00:00 | |
| KE7DJD | 2026-09-03 23:24:57 | 43.75204 | -116.05164 | 40° | 117km/h | 7405m | 4.0m/s | -22.6°C | 62.8% | 0hPa | 0V | 00:00:00 | 00:00:00 | 00:00:00 | |
| KE7DJD | 2026-09-03 23:24:36 | 43.74717 | -116.05728 | 43° | 111km/h | 7317m | 4.4m/s | -22.1°C | 61.3% | 0hPa | 0V | 00:00:00 | 00:00:00 | 00:00:00 | |
| KE7DJD | 2026-09-03 23:24:16 | 43.74276 | -116.06264 | 38° | 111km/h | 7235m | 2.7m/s | -21.5°C | 56.0% | 0hPa | 0V | 00:00:00 | 00:00:00 | 00:00:00 | |
| KE7DJD | 2026-09-03 23:23:56 | 43.73820 | -116.06820 | 40° | 113km/h | 7145m | 4.8m/s | -21.0°C | 51.0% | 0hPa | 0V | 00:00:00 | 00:00:00 | 00:00:00 | |
| KE7DJD | 2026-09-03 23:23:34 | 43.73376 | -116.07345 | 47° | 102km/h | 7057m | 3.6m/s | -20.4°C | 49.1% | 0hPa | 0V | 00:00:00 | 00:00:00 | 00:00:00 | |
| KE7DJD | 2026-09-03 23:23:14 | 43.72957 | -116.07839 | 37° | 104km/h | 6975m | 3.5m/s | -20.2°C | 67.2% | 0hPa | 0V | 00:00:00 | 00:00:00 | 00:00:00 | |
| KE7DJD | 2026-09-03 23:22:34 | 43.72101 | -116.08800 | 39° | 111km/h | 6806m | 4.0m/s | -19.2°C | 75.1% | 0hPa | 0V | 00:00:00 | 00:00:00 | 00:00:00 | |
| KE7DJD | 2026-09-03 23:22:13 | 43.71643 | -116.09295 | 38° | 102km/h | 6719m | 4.1m/s | -18.7°C | 78.4% | 0hPa | 0V | 00:00:00 | 00:00:00 | 00:00:00 | |
| KE7DJD | 2026-09-03 23:21:53 | 43.71206 | -116.09775 | 39° | 108km/h | 6639m | 4.8m/s | -18.0°C | 73.9% | 0hPa | 0V | 00:00:00 | 00:00:00 | 00:00:00 | |
| KE7DJD | 2026-09-03 23:21:32 | 43.70760 | -116.10296 | 43° | 111km/h | 6556m | 4.5m/s | -17.6°C | 76.4% | 0hPa | 0V | 00:00:00 | 00:00:00 | 00:00:00 | |
| KE7DJD | 2026-09-03 23:21:12 | 43.70355 | -116.10856 | 48° | 113km/h | 6473m | 4.6m/s | -17.3°C | 78.4% | 0hPa | 0V | 00:00:00 | 00:00:00 | 00:00:00 | |
| KE7DJD | 2026-09-03 23:20:52 | 43.69963 | -116.11368 | 50° | 102km/h | 6396m | 4.8m/s | -17.0°C | 79.2% | 0hPa | 0V | 00:00:00 | 00:00:00 | 00:00:00 | |
| KE7DJD | 2026-09-03 23:20:32 | 43.69599 | -116.11892 | 45° | 102km/h | 6322m | 3.3m/s | -16.6°C | 82.8% | 0hPa | 0V | 00:00:00 | 00:00:00 | 00:00:00 | |
| KE7DJD | 2026-09-03 23:20:11 | 43.69208 | -116.12457 | 50° | 108km/h | 6246m | 4.0m/s | -16.3°C | 84.6% | 0hPa | 0V | 00:00:00 | 00:00:00 | 00:00:00 | |
| KE7DJD | 2026-09-03 23:19:49 | 43.68801 | -116.13013 | 49° | 111km/h | 6172m | 3.3m/s | -16.4°C | 92.6% | 0hPa | 0V | 00:00:00 | 00:00:00 | 00:00:00 | |
| KE7DJD | 2026-09-03 23:19:29 | 43.68404 | -116.13557 | 48° | 115km/h | 6091m | 6.7m/s | -16.8°C | 98.5% | 0hPa | 0V | 00:00:00 | 00:00:00 | 00:00:00 | |
| KE7DJD | 2026-09-03 23:19:08 | 43.68016 | -116.14062 | 48° | 111km/h | 5994m | 3.5m/s | -16.3°C | 99.7% | 0hPa | 0V | 00:00:00 | 00:00:00 | 00:00:00 | |
| KE7DJD | 2026-09-03 23:18:48 | 43.67649 | -116.14566 | 48° | 97km/h | 5889m | 6.9m/s | -15.6°C | 98.0% | 0hPa | 0V | 00:00:00 | 00:00:00 | 00:00:00 | |
| KE7DJD | 2026-09-03 23:18:27 | 43.67289 | -116.14964 | 33° | 89km/h | 5796m | 4.6m/s | -14.9°C | 93.9% | 0hPa | 0V | 00:00:00 | 00:00:00 | 00:00:00 | |
| KE7DJD | 2026-09-03 23:18:06 | 43.66948 | -116.15451 | 49° | 95km/h | 5690m | 5.1m/s | -14.2°C | 90.1% | 0hPa | 0V | 00:00:00 | 00:00:00 | 00:00:00 | |
| KE7DJD | 2026-09-03 23:17:46 | 43.66651 | -116.15910 | 41° | 82km/h | 5576m | 3.5m/s | -13.7°C | 92.9% | 0hPa | 0V | 00:00:00 | 00:00:00 | 00:00:00 | |
| KE7DJD | 2026-09-03 23:17:27 | 43.66350 | -116.16360 | 48° | 91km/h | 5487m | 4.1m/s | -13.7°C | 96.3% | 0hPa | 0V | 00:00:00 | 00:00:00 | 00:00:00 | |
| KE7DJD | 2026-09-03 23:17:06 | 43.66035 | -116.16730 | 35° | 88km/h | 5378m | 6.1m/s | -13.2°C | 99.3% | 0hPa | 0V | 00:00:00 | 00:00:00 | 00:00:00 | |
| KE7DJD | 2026-09-03 23:16:46 | 43.65751 | -116.17064 | 48° | 78km/h | 5259m | 4.7m/s | -12.4°C | 99.5% | 0hPa | 0V | 00:00:00 | 00:00:00 | 00:00:00 | |
| KE7DJD | 2026-09-03 23:16:25 | 43.65431 | -116.17398 | 43° | 73km/h | 5157m | 6.7m/s | -11.7°C | 96.0% | 0hPa | 0V | 00:00:00 | 00:00:00 | 00:00:00 | |
| KE7DJD | 2026-09-03 23:16:05 | 43.65148 | -116.17721 | 46° | 62km/h | 5052m | 3.8m/s | -10.7°C | 90.5% | 0hPa | 0V | 00:00:00 | 00:00:00 | 00:00:00 | |
| KE7DJD | 2026-09-03 23:15:22 | 43.64511 | -116.18384 | 24° | 73km/h | 4844m | 4.7m/s | -8.7°C | 80.4% | 0hPa | 0V | 00:00:00 | 00:00:00 | 00:00:00 | |
| KE7DJD | 2026-09-03 23:15:01 | 43.64166 | -116.18673 | 30° | 68km/h | 4738m | 6.6m/s | -7.8°C | 77.0% | 0hPa | 0V | 00:00:00 | 00:00:00 | 00:00:00 | |
| KE7DJD | 2026-09-03 23:14:40 | 43.63805 | -116.18947 | 20° | 86km/h | 4634m | 5.6m/s | -7.0°C | 73.9% | 0hPa | 0V | 00:00:00 | 00:00:00 | 00:00:00 | |
| KE7DJD | 2026-09-03 23:14:19 | 43.63433 | -116.19252 | 20° | 77km/h | 4503m | 7.0m/s | -7.5°C | 99.6% | 0hPa | 0V | 00:00:00 | 00:00:00 | 00:00:00 | |
| KE7DJD | 2026-09-03 23:14:00 | 43.63145 | -116.19443 | 16° | 62km/h | 4398m | 5.8m/s | -6.9°C | 99.7% | 0hPa | 0V | 00:00:00 | 00:00:00 | 00:00:00 | |
| KE7DJD | 2026-09-03 23:13:38 | 43.62808 | -116.19624 | 24° | 77km/h | 4273m | 5.2m/s | -5.9°C | 94.2% | 0hPa | 0V | 00:00:00 | 00:00:00 | 00:00:00 | |
| KE7DJD | 2026-09-03 23:13:17 | 43.62518 | -116.19794 | 18° | 44km/h | 4140m | 6.4m/s | -5.2°C | 99.1% | 0hPa | 0V | 00:00:00 | 00:00:00 | 00:00:00 | |
| KE7DJD | 2026-09-03 23:12:57 | 43.62251 | -116.19912 | 6° | 62km/h | 4019m | 5.3m/s | -4.3°C | 99.8% | 0hPa | 0V | 00:00:00 | 00:00:00 | 00:00:00 | |
| KE7DJD | 2026-09-03 23:12:37 | 43.61927 | -116.20062 | 20° | 47km/h | 3901m | 5.8m/s | -3.6°C | 99.8% | 0hPa | 0V | 00:00:00 | 00:00:00 | 00:00:00 | |
| KE7DJD | 2026-09-03 23:12:15 | 43.61633 | -116.20157 | 360° | 57km/h | 3784m | 5.9m/s | -2.7°C | 95.3% | 0hPa | 0V | 00:00:00 | 00:00:00 | 00:00:00 | |
| KE7DJD | 2026-09-03 23:11:54 | 43.61335 | -116.20239 | 1° | 53km/h | 3659m | 5.1m/s | -1.7°C | 91.2% | 0hPa | 0V | 00:00:00 | 00:00:00 | 00:00:00 | |
| KE7DJD | 2026-09-03 23:11:33 | 43.61025 | -116.20347 | 24° | 62km/h | 3547m | 4.9m/s | -0.9°C | 86.8% | 0hPa | 0V | 00:00:00 | 00:00:00 | 00:00:00 | |
| KE7DJD | 2026-09-03 23:11:13 | 43.60711 | -116.20418 | 10° | 51km/h | 3440m | 5.0m/s | -0.2°C | 89.5% | 0hPa | 0V | 00:00:00 | 00:00:00 | 00:00:00 | |
| KE7DJD | 2026-09-03 23:10:52 | 43.60383 | -116.20515 | 13° | 49km/h | 3325m | 6.4m/s | 0.7°C | 88.2% | 0hPa | 0V | 00:00:00 | 00:00:00 | 00:00:00 | |
| KE7DJD | 2026-09-03 23:10:32 | 43.60069 | -116.20619 | 9° | 58km/h | 3213m | 7.0m/s | 1.5°C | 87.6% | 0hPa | 0V | 00:00:00 | 00:00:00 | 00:00:00 | |
| KE7DJD | 2026-09-03 23:10:11 | 43.59756 | -116.20756 | 7° | 57km/h | 3091m | 4.5m/s | 2.6°C | 83.3% | 0hPa | 0V | 00:00:00 | 00:00:00 | 00:00:00 | |
| KE7DJD | 2026-09-03 23:09:50 | 43.59451 | -116.20860 | 6° | 60km/h | 2977m | 4.6m/s | 3.6°C | 78.5% | 0hPa | 0V | 00:00:00 | 00:00:00 | 00:00:00 | |
| KE7DJD | 2026-09-03 23:09:29 | 43.59126 | -116.20969 | 4° | 58km/h | 2843m | 6.8m/s | 4.6°C | 75.4% | 0hPa | 0V | 00:00:00 | 00:00:00 | 00:00:00 | |
| KE7DJD | 2026-09-03 23:09:09 | 43.58877 | -116.21049 | 27° | 37km/h | 2706m | 6.5m/s | 5.8°C | 70.7% | 0hPa | 0V | 00:00:00 | 00:00:00 | 00:00:00 | |
| KE7DJD | 2026-09-03 23:08:48 | 43.58694 | -116.21109 | 25° | 31km/h | 2582m | 5.1m/s | 6.6°C | 68.9% | 0hPa | 0V | 00:00:00 | 00:00:00 | 00:00:00 | |
| KE7DJD | 2026-09-03 23:08:27 | 43.58503 | -116.21111 | 346° | 27km/h | 2450m | 5.2m/s | 7.9°C | 64.1% | 0hPa | 0V | 00:00:00 | 00:00:00 | 00:00:00 | |
| KE7DJD | 2026-09-03 23:08:07 | 43.58322 | -116.21095 | 356° | 20km/h | 2339m | 5.9m/s | 8.9°C | 60.9% | 0hPa | 0V | 00:00:00 | 00:00:00 | 00:00:00 | |
| KE7DJD | 2026-09-03 23:07:46 | 43.58145 | -116.21053 | 359° | 46km/h | 2217m | 4.8m/s | 9.9°C | 58.1% | 0hPa | 0V | 00:00:00 | 00:00:00 | 00:00:00 | |
| KE7DJD | 2026-09-03 23:07:26 | 43.57980 | -116.21037 | 343° | 44km/h | 2114m | 5.2m/s | 10.8°C | 55.4% | 0hPa | 0V | 00:00:00 | 00:00:00 | 00:00:00 | |
| KE7DJD | 2026-09-03 23:07:05 | 43.57842 | -116.21037 | 3° | 22km/h | 2011m | 5.2m/s | 11.9°C | 52.4% | 0hPa | 0V | 00:00:00 | 00:00:00 | 00:00:00 | |
| KE7DJD | 2026-09-03 23:06:45 | 43.57695 | -116.21040 | 36° | 27km/h | 1902m | 4.4m/s | 12.9°C | 49.4% | 0hPa | 0V | 00:00:00 | 00:00:00 | 00:00:00 | |
| KE7DJD | 2026-09-03 23:06:25 | 43.57538 | -116.21072 | 30° | 31km/h | 1798m | 5.6m/s | 13.8°C | 48.9% | 0hPa | 0V | 00:00:00 | 00:00:00 | 00:00:00 | |
| KE7DJD | 2026-09-03 23:06:04 | 43.57456 | -116.21178 | 201° | 4km/h | 1644m | 8.9m/s | 15.2°C | 45.2% | 0hPa | 0V | 00:00:00 | 00:00:00 | 00:00:00 | |
| KE7DJD | 2026-09-03 23:05:43 | 43.57390 | -116.21210 | 40° | 15km/h | 1495m | 7.9m/s | 16.6°C | 0% | 0hPa | 0V | 00:00:00 | 00:00:00 | 00:00:00 | |
| KE7DJD | 2026-09-03 23:05:23 | 43.57298 | -116.21227 | 30° | 31km/h | 1366m | 6.2m/s | 0°C | 0% | 0hPa | 0V | 00:00:00 | 00:00:00 | 00:00:00 | |
| KE7DJD | 2026-09-03 23:05:02 | 43.57184 | -116.21245 | 321° | 22km/h | 1237m | 6.8m/s | 0°C | 0% | 0hPa | 0V | 00:00:00 | 00:00:00 | 00:00:00 |